createdAt,value
2022-07-29T00:02:27.918Z,68.47
2022-07-29T00:04:54.886Z,69.12
2022-07-29T00:07:21.727Z,69.05
2022-07-29T00:09:51.676Z,68.88
2022-07-29T00:12:26.306Z,68.91
2022-07-29T00:14:57.722Z,69.32
2022-07-29T00:17:25.445Z,68.96
2022-07-29T00:19:52.493Z,69.21
2022-07-29T00:22:20.182Z,68.97
2022-07-29T00:24:49.546Z,68.93
2022-07-29T00:27:16.310Z,69.19
2022-07-29T00:29:43.056Z,69.66
2022-07-29T00:32:09.828Z,69.39
2022-07-29T00:34:55.030Z,69.67
2022-07-29T00:37:22.158Z,69.67
2022-07-29T00:39:48.811Z,69.75
2022-07-29T00:42:15.605Z,69.93
2022-07-29T00:44:42.593Z,70.13
2022-07-29T00:47:13.507Z,69.75
2022-07-29T00:49:42.137Z,70.32
2022-07-29T00:52:10.309Z,70.37
2022-07-29T00:54:44.191Z,70.65
2022-07-29T00:57:12.219Z,70.41
2022-07-29T00:59:38.901Z,70.53
2022-07-29T01:02:05.659Z,70.30
2022-07-29T01:04:33.444Z,70.59
2022-07-29T01:07:03.683Z,70.61
2022-07-29T01:09:46.222Z,70.44
2022-07-29T01:12:25.713Z,70.64
2022-07-29T01:14:53.588Z,71.13
2022-07-29T01:17:32.470Z,71.11
2022-07-29T01:20:11.626Z,71.27
2022-07-29T01:22:47.225Z,71.32
2022-07-29T01:25:28.715Z,71.73
2022-07-29T01:28:07.066Z,71.66
2022-07-29T01:30:39.506Z,71.54
2022-07-29T01:33:34.722Z,71.38
2022-07-29T01:36:05.345Z,71.35
2022-07-29T01:38:32.421Z,70.59
2022-07-29T01:41:13.887Z,70.85
2022-07-29T01:43:49.780Z,71.12
2022-07-29T01:46:22.371Z,71.04
2022-07-29T01:48:56.119Z,70.62
2022-07-29T01:51:31.302Z,70.42
2022-07-29T01:54:16.730Z,70.74
2022-07-29T01:56:45.971Z,70.65
2022-07-29T01:59:12.873Z,70.65
2022-07-29T02:01:43.928Z,70.94
2022-07-29T02:04:26.651Z,71.27
2022-07-29T02:07:00.223Z,70.96
2022-07-29T02:09:28.336Z,71.46
2022-07-29T02:11:57.158Z,72.30
2022-07-29T02:14:25.525Z,71.91
2022-07-29T02:16:55.253Z,72.28
2022-07-29T02:19:24.400Z,73.02
2022-07-29T02:21:54.724Z,72.79
2022-07-29T02:24:24.445Z,73.48
2022-07-29T02:26:53.752Z,73.71
2022-07-29T02:29:23.522Z,73.79
2022-07-29T02:31:51.910Z,74.14
2022-07-29T02:34:20.474Z,74.69
2022-07-29T02:36:50.478Z,74.62
2022-07-29T02:39:18.239Z,74.49
2022-07-29T02:41:51.016Z,75.38
2022-07-29T02:44:20.453Z,75.19
2022-07-29T02:46:54.322Z,75.11
2022-07-29T02:49:32.958Z,76.39
2022-07-29T02:52:04.268Z,76.06
2022-07-29T02:54:45.437Z,75.69
2022-07-29T02:57:19.934Z,76.19
2022-07-29T02:59:51.104Z,76.64
2022-07-29T03:02:18.656Z,77.01
2022-07-29T03:04:47.265Z,76.89
2022-07-29T03:07:16.626Z,77.74
2022-07-29T03:09:43.956Z,77.29
2022-07-29T03:12:11.960Z,77.81
2022-07-29T03:14:39.529Z,78.14
2022-07-29T03:17:06.544Z,78.65
2022-07-29T03:19:35.233Z,79.56
2022-07-29T03:22:02.337Z,79.33
2022-07-29T03:24:32.394Z,79.52
2022-07-29T03:26:59.948Z,80.28
2022-07-29T03:29:33.450Z,80.57
2022-07-29T03:32:08.334Z,81.06
2022-07-29T03:34:36.782Z,81.59
2022-07-29T03:37:03.557Z,81.07
2022-07-29T03:39:34.112Z,82.38
2022-07-29T03:42:02.110Z,82.54
2022-07-29T03:44:30.219Z,83.41
2022-07-29T03:47:00.974Z,83.70
2022-07-29T03:49:28.944Z,82.58
2022-07-29T03:51:55.739Z,82.99
2022-07-29T03:54:23.429Z,83.22
2022-07-29T03:56:53.696Z,84.23
2022-07-29T03:59:23.368Z,84.10
2022-07-29T04:01:51.063Z,83.73
2022-07-29T04:04:18.322Z,83.74
2022-07-29T04:06:48.401Z,84.74
2022-07-29T04:09:15.674Z,84.34
2022-07-29T04:12:01.795Z,84.32
2022-07-29T04:14:29.907Z,84.56
2022-07-29T04:16:56.648Z,85.19
2022-07-29T04:19:23.657Z,85.02
2022-07-29T04:21:50.593Z,85.57
2022-07-29T04:24:17.854Z,85.27
2022-07-29T04:26:46.646Z,85.11
2022-07-29T04:29:15.108Z,85.40
2022-07-29T04:31:42.503Z,85.62
2022-07-29T04:34:10.064Z,84.94
2022-07-29T04:36:36.773Z,85.78
2022-07-29T04:39:04.140Z,85.54
2022-07-29T04:41:32.606Z,85.67
2022-07-29T04:44:02.023Z,85.19
2022-07-29T04:46:29.338Z,84.20
2022-07-29T04:48:56.443Z,84.12
2022-07-29T04:51:23.366Z,83.97
2022-07-29T04:53:50.082Z,83.48
2022-07-29T04:56:16.879Z,84.07
2022-07-29T04:58:43.523Z,84.11
2022-07-29T05:01:10.321Z,84.64
2022-07-29T05:03:37.219Z,84.47
2022-07-29T05:06:04.139Z,84.62
2022-07-29T05:08:30.795Z,84.40
2022-07-29T05:10:57.445Z,84.47
2022-07-29T05:13:24.479Z,84.35
2022-07-29T05:15:51.247Z,84.68
2022-07-29T05:18:18.044Z,83.97
2022-07-29T05:20:44.897Z,84.75
2022-07-29T05:23:13.817Z,84.63
2022-07-29T05:25:43.719Z,83.96
2022-07-29T05:28:12.414Z,83.59
2022-07-29T05:30:39.664Z,83.88
2022-07-29T05:33:06.584Z,83.16
2022-07-29T05:35:38.041Z,82.62
2022-07-29T05:38:08.157Z,82.88
2022-07-29T05:40:36.110Z,83.03
2022-07-29T05:43:03.120Z,83.33
2022-07-29T05:45:29.831Z,83.65
2022-07-29T05:47:56.612Z,83.50
2022-07-29T05:50:23.247Z,83.54
2022-07-29T05:52:50.036Z,83.77
2022-07-29T05:55:16.784Z,83.08
2022-07-29T05:57:44.476Z,83.63
2022-07-29T06:00:11.624Z,83.00
2022-07-29T06:02:41.439Z,82.21
2022-07-29T06:05:12.873Z,82.53
2022-07-29T06:07:49.990Z,82.07
2022-07-29T06:10:17.906Z,81.27
2022-07-29T06:12:44.853Z,80.42
2022-07-29T06:15:11.734Z,79.83
2022-07-29T06:17:38.336Z,80.05
2022-07-29T06:20:27.258Z,79.39
2022-07-29T06:22:54.138Z,79.02
2022-07-29T06:25:20.898Z,78.34
2022-07-29T06:27:47.607Z,77.24
2022-07-29T06:30:14.330Z,76.23
2022-07-29T06:32:43.258Z,74.15
2022-07-29T06:35:38.008Z,70.90
2022-07-29T06:37:58.846Z,73.05
2022-07-29T06:40:45.757Z,75.21
2022-07-29T06:43:12.536Z,75.98
2022-07-29T06:45:42.263Z,72.21
2022-07-29T06:48:09.957Z,67.81
2022-07-29T06:50:36.687Z,64.77
2022-07-29T06:53:04.240Z,63.93
2022-07-29T06:55:31.194Z,61.87
2022-07-29T06:57:58.154Z,60.04
2022-07-29T07:00:24.979Z,59.33
2022-07-29T07:02:51.846Z,60.69
2022-07-29T07:05:18.769Z,60.57
2022-07-29T07:07:45.470Z,58.30
2022-07-29T07:10:12.195Z,56.79
2022-07-29T07:12:39.009Z,57.48
2022-07-29T07:15:06.703Z,57.05
2022-07-29T07:17:33.623Z,57.78
2022-07-29T07:20:00.316Z,57.77
2022-07-29T07:22:27.125Z,57.63
2022-07-29T07:24:53.799Z,56.20
2022-07-29T07:27:20.623Z,56.73
2022-07-29T07:29:47.266Z,56.30
2022-07-29T07:32:17.606Z,56.30
2022-07-29T07:34:44.695Z,55.58
2022-07-29T07:37:12.497Z,53.58
2022-07-29T07:39:40.390Z,51.38
2022-07-29T07:42:07.243Z,52.01
2022-07-29T07:44:46.279Z,50.69
2022-07-29T07:47:21.418Z,51.88
2022-07-29T07:49:49.463Z,54.36
2022-07-29T07:52:21.542Z,55.99
2022-07-29T07:54:49.692Z,53.22
2022-07-29T07:57:16.766Z,49.94
2022-07-29T07:59:46.409Z,50.80
2022-07-29T08:02:13.303Z,53.53
2022-07-29T08:04:41.751Z,53.34
2022-07-29T08:07:09.900Z,53.94
2022-07-29T08:09:37.071Z,52.93
2022-07-29T08:12:04.944Z,50.46
2022-07-29T08:14:34.350Z,49.43
2022-07-29T08:17:01.214Z,49.53
2022-07-29T08:19:28.326Z,48.62
2022-07-29T08:21:55.413Z,49.58
2022-07-29T08:24:41.597Z,48.63
2022-07-29T08:27:26.927Z,48.33
2022-07-29T08:29:56.913Z,47.89
2022-07-29T08:32:50.926Z,47.74
2022-07-29T08:35:10.692Z,47.26
2022-07-29T08:37:37.322Z,46.18
2022-07-29T08:40:04.555Z,46.43
2022-07-29T08:42:31.547Z,46.80
2022-07-29T08:44:58.976Z,46.24
2022-07-29T08:47:27.422Z,46.52
2022-07-29T08:49:54.204Z,46.03
2022-07-29T08:52:22.797Z,44.88
2022-07-29T08:54:49.932Z,44.68
2022-07-29T08:57:17.469Z,44.87
2022-07-29T08:59:47.675Z,45.28
2022-07-29T09:02:21.166Z,45.68
2022-07-29T09:04:48.465Z,45.78
2022-07-29T09:07:19.470Z,44.88
2022-07-29T09:09:46.598Z,45.33
2022-07-29T09:12:13.601Z,45.04
2022-07-29T09:14:55.753Z,45.12
2022-07-29T09:17:47.541Z,43.89
2022-07-29T09:20:23.312Z,44.35
2022-07-29T09:22:51.868Z,44.88
2022-07-29T09:25:34.822Z,44.86
2022-07-29T09:28:09.245Z,45.05
2022-07-29T09:30:36.914Z,47.07
2022-07-29T09:33:04.480Z,49.14
2022-07-29T09:35:31.939Z,49.29
2022-07-29T09:37:59.077Z,49.53
2022-07-29T09:40:28.844Z,50.63
2022-07-29T09:42:59.510Z,49.48
2022-07-29T09:45:35.669Z,49.70
2022-07-29T09:48:15.591Z,47.98
2022-07-29T09:50:45.002Z,48.89
2022-07-29T09:53:12.475Z,49.50
2022-07-29T09:55:52.216Z,49.26
2022-07-29T09:58:23.570Z,49.95
2022-07-29T10:00:52.409Z,49.51
2022-07-29T10:03:20.071Z,49.25
2022-07-29T10:05:47.513Z,49.06
2022-07-29T10:08:14.270Z,48.60
2022-07-29T10:10:43.134Z,48.84
2022-07-29T10:13:16.092Z,48.47
2022-07-29T10:15:46.179Z,48.92
2022-07-29T10:18:15.508Z,49.13
2022-07-29T10:20:42.461Z,49.20
2022-07-29T10:23:10.393Z,48.93
2022-07-29T10:25:40.000Z,48.43
2022-07-29T10:28:07.484Z,48.51
2022-07-29T10:30:34.912Z,48.96
2022-07-29T10:33:35.663Z,49.51
2022-07-29T10:36:08.542Z,49.69
2022-07-29T10:38:35.942Z,49.37
2022-07-29T10:41:29.100Z,48.92
2022-07-29T10:44:12.375Z,48.40
2022-07-29T10:46:45.119Z,47.97
2022-07-29T10:49:27.227Z,48.29
2022-07-29T10:52:06.037Z,48.01
2022-07-29T10:54:52.048Z,45.87
2022-07-29T10:57:53.042Z,45.96
2022-07-29T11:00:17.039Z,44.96
2022-07-29T11:02:46.332Z,46.82
2022-07-29T11:05:19.652Z,47.07
2022-07-29T11:08:26.018Z,46.77
2022-07-29T11:11:15.862Z,47.21
2022-07-29T11:13:44.211Z,47.77
2022-07-29T11:16:11.349Z,45.96
2022-07-29T11:19:13.220Z,43.59
2022-07-29T11:21:54.030Z,42.74
2022-07-29T11:24:33.140Z,44.09
2022-07-29T11:27:09.327Z,44.26
2022-07-29T11:30:02.219Z,44.32
2022-07-29T11:32:41.516Z,44.74
2022-07-29T11:35:37.017Z,44.65
2022-07-29T11:38:33.975Z,44.94
2022-07-29T11:41:27.304Z,41.61
2022-07-29T11:43:59.157Z,43.17
2022-07-29T11:46:54.051Z,43.53
2022-07-29T11:49:32.275Z,43.52
2022-07-29T11:52:04.667Z,41.77
2022-07-29T11:54:38.841Z,41.95
2022-07-29T11:57:29.498Z,39.94
2022-07-29T12:00:12.497Z,41.22
2022-07-29T12:02:43.405Z,41.13
2022-07-29T12:05:12.074Z,41.32
2022-07-29T12:07:41.312Z,41.49
2022-07-29T12:10:20.201Z,41.66
2022-07-29T12:12:57.168Z,41.74
2022-07-29T12:15:31.500Z,41.16
2022-07-29T12:18:16.114Z,40.35
2022-07-29T12:20:45.978Z,39.34
2022-07-29T12:23:16.190Z,39.05
2022-07-29T12:25:45.155Z,39.59
2022-07-29T12:28:26.406Z,39.78
2022-07-29T12:30:53.975Z,39.17
2022-07-29T12:33:30.533Z,39.11
2022-07-29T12:36:10.375Z,39.59
2022-07-29T12:38:41.817Z,39.38
2022-07-29T12:41:08.695Z,38.70
2022-07-29T12:43:35.667Z,38.85
2022-07-29T12:46:14.747Z,38.47
2022-07-29T12:48:44.328Z,38.49
2022-07-29T12:51:13.387Z,38.75
2022-07-29T12:53:40.472Z,39.40
2022-07-29T12:56:40.689Z,39.67
2022-07-29T12:59:17.029Z,38.66
2022-07-29T13:01:44.874Z,38.99
2022-07-29T13:04:12.063Z,38.21
2022-07-29T13:06:45.899Z,38.71
2022-07-29T13:09:19.217Z,38.65
2022-07-29T13:11:52.193Z,38.47
2022-07-29T13:14:35.282Z,38.01
2022-07-29T13:17:14.121Z,38.16
2022-07-29T13:19:50.838Z,38.47
2022-07-29T13:22:23.436Z,38.84
2022-07-29T13:24:50.494Z,38.07
2022-07-29T13:27:18.430Z,39.02
2022-07-29T13:29:45.455Z,38.59
2022-07-29T13:32:14.265Z,38.66
2022-07-29T13:34:41.955Z,38.30
2022-07-29T13:37:08.861Z,39.44
2022-07-29T13:39:35.771Z,39.86
2022-07-29T13:42:02.591Z,40.18
2022-07-29T13:44:29.817Z,39.95
2022-07-29T13:46:57.020Z,39.62
2022-07-29T13:49:23.910Z,39.59
2022-07-29T13:51:51.130Z,40.12
2022-07-29T13:54:17.977Z,39.86
2022-07-29T13:56:44.916Z,38.59
2022-07-29T13:59:13.983Z,38.97
2022-07-29T14:01:43.243Z,38.92
2022-07-29T14:04:13.189Z,38.88
2022-07-29T14:06:40.570Z,39.11
2022-07-29T14:09:09.511Z,38.83
2022-07-29T14:11:36.669Z,38.91
2022-07-29T14:14:03.604Z,38.13
2022-07-29T14:16:30.496Z,37.66
2022-07-29T14:18:57.556Z,37.55
2022-07-29T14:21:25.134Z,37.54
2022-07-29T14:23:53.081Z,37.82
2022-07-29T14:26:24.135Z,37.87
2022-07-29T14:28:52.956Z,38.03
2022-07-29T14:31:19.930Z,38.05
2022-07-29T14:33:49.213Z,38.23
2022-07-29T14:36:16.317Z,38.39
2022-07-29T14:38:44.458Z,39.16
2022-07-29T14:41:11.329Z,38.81
2022-07-29T14:43:38.427Z,38.15
2022-07-29T14:46:08.337Z,38.02
2022-07-29T14:48:36.135Z,37.93
2022-07-29T14:51:05.025Z,38.28
2022-07-29T14:53:32.772Z,38.64
2022-07-29T14:56:15.036Z,39.02
2022-07-29T14:58:51.622Z,38.98
2022-07-29T15:01:22.125Z,38.59
2022-07-29T15:03:59.313Z,38.31
2022-07-29T15:06:28.010Z,39.13
2022-07-29T15:08:55.037Z,39.26
2022-07-29T15:11:21.929Z,39.23
2022-07-29T15:13:48.846Z,39.37
2022-07-29T15:16:17.924Z,39.12
2022-07-29T15:18:48.856Z,39.50
2022-07-29T15:21:16.911Z,39.43
2022-07-29T15:23:43.572Z,39.28
2022-07-29T15:26:10.682Z,39.22
2022-07-29T15:28:37.536Z,39.31
2022-07-29T15:31:05.038Z,39.21
2022-07-29T15:33:32.404Z,39.13
2022-07-29T15:36:00.062Z,39.16
2022-07-29T15:38:28.834Z,39.56
2022-07-29T15:40:59.512Z,39.68
2022-07-29T15:43:29.740Z,40.01
2022-07-29T15:46:15.211Z,40.15
2022-07-29T15:48:42.176Z,40.93
2022-07-29T15:51:10.032Z,41.03
2022-07-29T15:53:38.320Z,41.11
2022-07-29T15:56:06.630Z,40.75
2022-07-29T15:58:34.666Z,40.66
2022-07-29T16:01:01.662Z,40.72
2022-07-29T16:03:28.796Z,41.12
2022-07-29T16:05:55.663Z,41.62
2022-07-29T16:08:23.190Z,41.47
2022-07-29T16:10:50.225Z,41.64
2022-07-29T16:13:18.782Z,42.09
2022-07-29T16:15:46.293Z,41.61
2022-07-29T16:18:29.953Z,41.66
2022-07-29T16:21:01.791Z,40.92
2022-07-29T16:23:29.273Z,41.04
2022-07-29T16:26:05.154Z,40.98
2022-07-29T16:28:34.755Z,40.87
2022-07-29T16:31:01.653Z,40.51
2022-07-29T16:33:54.205Z,41.51
2022-07-29T16:36:21.338Z,41.91
2022-07-29T16:38:48.994Z,42.14
2022-07-29T16:41:15.997Z,42.23
2022-07-29T16:43:43.622Z,42.56
2022-07-29T16:46:13.200Z,42.97
2022-07-29T16:48:47.728Z,43.49
2022-07-29T16:51:17.636Z,43.15
2022-07-29T16:53:57.283Z,42.69
2022-07-29T16:56:25.077Z,42.56
2022-07-29T16:58:51.963Z,42.29
2022-07-29T17:01:19.090Z,42.35
2022-07-29T17:04:05.777Z,42.24
2022-07-29T17:06:35.156Z,42.47
2022-07-29T17:09:04.119Z,42.92
2022-07-29T17:11:51.941Z,42.46
2022-07-29T17:14:17.770Z,42.39
2022-07-29T17:17:00.314Z,42.55
2022-07-29T17:19:33.961Z,42.18
2022-07-29T17:22:09.221Z,42.30
2022-07-29T17:24:40.825Z,42.00
2022-07-29T17:27:07.934Z,41.57
2022-07-29T17:29:37.510Z,41.34
2022-07-29T17:32:07.426Z,41.29
2022-07-29T17:34:35.391Z,39.70
2022-07-29T17:37:02.197Z,39.33
2022-07-29T17:39:29.137Z,39.51
2022-07-29T17:41:55.932Z,39.40
2022-07-29T17:44:30.533Z,39.39
2022-07-29T17:47:20.021Z,39.28
2022-07-29T17:49:47.464Z,39.52
2022-07-29T17:52:18.584Z,39.45
2022-07-29T17:54:48.534Z,39.33
2022-07-29T17:57:24.862Z,39.72
2022-07-29T17:59:57.062Z,39.88
2022-07-29T18:02:30.833Z,39.69
2022-07-29T18:05:20.113Z,39.94
2022-07-29T18:08:00.377Z,40.67
2022-07-29T18:10:55.768Z,40.36
2022-07-29T18:13:37.167Z,41.01
2022-07-29T18:16:13.558Z,41.03
2022-07-29T18:19:29.845Z,41.78
2022-07-29T18:22:23.190Z,42.05
2022-07-29T18:28:16.073Z,43.57
2022-07-29T18:30:52.510Z,44.25
2022-07-29T18:33:34.808Z,45.01
2022-07-29T18:39:26.746Z,46.89
2022-07-29T18:42:03.365Z,47.32
2022-07-29T18:47:34.361Z,48.19
2022-07-29T18:50:37.727Z,48.19
2022-07-29T18:53:13.236Z,48.30
2022-07-29T18:55:40.104Z,48.60
2022-07-29T18:58:06.936Z,48.91
2022-07-29T19:00:33.622Z,49.46
2022-07-29T19:03:00.441Z,49.60
2022-07-29T19:05:27.372Z,50.11
2022-07-29T19:07:56.153Z,50.81
2022-07-29T19:10:22.982Z,50.99
2022-07-29T19:12:50.352Z,51.28
2022-07-29T19:15:20.468Z,51.47
2022-07-29T19:17:48.644Z,52.00
2022-07-29T19:20:16.083Z,52.83
2022-07-29T19:22:43.909Z,53.15
2022-07-29T19:25:11.236Z,53.56
2022-07-29T19:27:38.169Z,53.71
2022-07-29T19:30:07.061Z,54.14
2022-07-29T19:32:37.061Z,54.82
2022-07-29T19:35:24.085Z,55.31
2022-07-29T19:37:52.307Z,55.70
2022-07-29T19:40:19.373Z,55.53
2022-07-29T19:42:48.139Z,55.73
2022-07-29T19:45:14.816Z,56.41
2022-07-29T19:47:41.620Z,56.68
2022-07-29T19:50:09.242Z,56.72
2022-07-29T19:52:36.510Z,57.08
2022-07-29T19:55:07.652Z,57.45
2022-07-29T19:57:40.946Z,57.53
2022-07-29T20:00:11.346Z,57.60
2022-07-29T20:02:39.485Z,58.43
2022-07-29T20:05:07.267Z,58.19
2022-07-29T20:07:34.461Z,58.60
2022-07-29T20:10:01.533Z,58.49
2022-07-29T20:12:28.237Z,58.64
2022-07-29T20:14:55.068Z,59.27
2022-07-29T20:17:24.748Z,59.11
2022-07-29T20:19:51.973Z,59.90
2022-07-29T20:22:21.014Z,59.45
2022-07-29T20:24:58.144Z,60.02
2022-07-29T20:27:29.568Z,60.34
2022-07-29T20:29:56.259Z,60.89
2022-07-29T20:32:23.166Z,61.67
2022-07-29T20:34:49.908Z,62.07
2022-07-29T20:37:18.421Z,62.49
2022-07-29T20:39:47.834Z,64.09
2022-07-29T20:42:15.721Z,64.11
2022-07-29T20:44:42.593Z,64.89
2022-07-29T20:47:09.897Z,66.99
2022-07-29T20:49:37.047Z,67.22
2022-07-29T20:52:04.370Z,67.70
2022-07-29T20:54:31.245Z,68.83
2022-07-29T20:56:58.604Z,70.71
2022-07-29T20:59:26.171Z,72.45
2022-07-29T21:01:55.193Z,72.10
2022-07-29T21:04:22.066Z,74.04
2022-07-29T21:06:58.096Z,74.10
2022-07-29T21:09:24.898Z,74.22
2022-07-29T21:11:51.721Z,75.34
2022-07-29T21:14:41.449Z,76.50
2022-07-29T21:17:08.270Z,76.83
2022-07-29T21:19:35.527Z,76.48
2022-07-29T21:22:04.799Z,78.39
2022-07-29T21:24:32.032Z,78.74
2022-07-29T21:27:21.045Z,78.59
2022-07-29T21:29:49.189Z,78.29
2022-07-29T21:32:27.569Z,79.54
2022-07-29T21:34:56.700Z,81.08
2022-07-29T21:37:23.438Z,81.83
2022-07-29T21:39:50.252Z,84.74
2022-07-29T21:42:17.001Z,83.27
2022-07-29T21:44:44.310Z,85.87
2022-07-29T21:47:11.837Z,85.45
2022-07-29T21:49:40.232Z,85.22
2022-07-29T21:52:07.971Z,86.78
2022-07-29T21:54:35.650Z,88.62
2022-07-29T21:57:02.704Z,87.45
2022-07-29T21:59:29.821Z,87.00
2022-07-29T22:02:00.774Z,87.62
2022-07-29T22:04:49.950Z,88.33
2022-07-29T22:07:16.801Z,90.79
2022-07-29T22:09:44.644Z,90.28
2022-07-29T22:12:11.456Z,89.84
2022-07-29T22:14:38.329Z,89.64
2022-07-29T22:17:06.300Z,90.60
2022-07-29T22:19:34.680Z,89.81
2022-07-29T22:22:01.622Z,89.81
2022-07-29T22:24:28.312Z,90.97
2022-07-29T22:26:55.173Z,89.97
2022-07-29T22:29:21.896Z,90.26
2022-07-29T22:31:48.883Z,91.56
2022-07-29T22:34:15.700Z,92.27
2022-07-29T22:36:43.357Z,94.19
2022-07-29T22:39:10.213Z,94.35
2022-07-29T22:41:37.087Z,94.02
2022-07-29T22:44:04.080Z,96.08
2022-07-29T22:46:31.106Z,94.61
2022-07-29T22:48:58.364Z,95.53
2022-07-29T22:51:25.611Z,95.85
2022-07-29T22:53:52.643Z,97.14
2022-07-29T22:56:20.385Z,98.42
2022-07-29T22:58:47.388Z,97.73
2022-07-29T23:01:14.349Z,98.48
2022-07-29T23:03:41.517Z,99.26
2022-07-29T23:06:18.236Z,99.49
2022-07-29T23:08:45.093Z,99.92
2022-07-29T23:11:12.047Z,100.00
2022-07-29T23:13:38.844Z,100.00
2022-07-29T23:16:06.047Z,100.00
2022-07-29T23:18:32.831Z,100.00
2022-07-29T23:20:59.641Z,100.00
2022-07-29T23:23:26.403Z,100.00
2022-07-29T23:25:59.190Z,100.00
2022-07-29T23:28:26.037Z,100.00
2022-07-29T23:30:52.740Z,100.00
2022-07-29T23:33:19.628Z,100.00
2022-07-29T23:35:46.305Z,100.00
2022-07-29T23:38:13.169Z,100.00
2022-07-29T23:40:40.678Z,100.00
2022-07-29T23:43:08.595Z,100.00
2022-07-29T23:45:42.896Z,100.00
2022-07-29T23:48:11.943Z,100.00
2022-07-29T23:50:38.644Z,100.00
2022-07-29T23:53:05.523Z,100.00
2022-07-29T23:55:38.616Z,100.00
2022-07-29T23:58:05.558Z,100.00
